Gelendzhik, Russia
Current Conditions -  °F | °C
As of 8:30 AM on Saturday 25 Oct 2014 (Local Time) from URKA Reporting Station
Overcast Overcast  
Wind Chill: 21°   Ceiling: 1200
Heat Index: 32°   Visibility: 6mi
Dew Point: 28°   Wind: 18mph
Humidity: 87%   Direction: 70°ENE
Pressure: 30.18"   Gusts: 27mph
Location:  44.57°N, 38.07°E
Report Text: URKA 250530Z 07008G12MPS 9999 BKN012 OVC110 M00/M02 Q1022 TEMPO0500 FG BKN003 RMK QFE762/1017 SC060
Loading
Personal Weather Stations






























Interactive Weather Map
Tropical Storm Tracking
New forecast layout! Learn more

10-Day Weather Forecast

Advertisements
Track Severe Weather on mobile